Weather History for KGHW - August, 2013

Change the Weather History Date:

Saturday, August 3, 2013

  Actual Average Record
Temperature  
Mean Temperature 64 °F -  
Max Temperature 75 °F 80 °F 95 °F (1959)
Min Temperature 53 °F 57 °F 44 °F (1971)
Degree Days  
Heating Degree Days 1    
Growing Degree Days 14 (Base 50)    
Moisture  
Dew Point 49 °F    
Average Humidity 61    
Maximum Humidity 88    
Minimum Humidity 29    
Precipitation  
Precipitation 0.00 in - - ()
Sea Level Pressure  
Sea Level Pressure 30.18 in    
Wind  
Wind Speed 7 mph (NNW)    
Max Wind Speed 14 mph    
Max Gust Speed 18 mph    
Visibility 10 miles    
Events      
Averages and records for this station are not official NWS values.
T = Trace of Precipitation, MM = Missing Value Source: NWS Daily Summary

Daily Weather History Graph

Daily Weather History Graph

Search for Another Location

Airport or City:

Trip Planner

Search our weather history database for the weather conditions in past years. The results will help you decide how hot, cold, wet, or windy it might be!

Date:

Astronomy

Aug. 03, 2013 Rise Set
Actual Time 6:07 AM CDT 8:46 PM CDT
Civil Twilight 5:33 AM CDT 9:20 PM CDT
Nautical Twilight 4:50 AM CDT 10:03 PM CDT
Astronomical Twilight 4:00 AM CDT 10:52 PM CDT
Moon 3:15 AM CDT (8/3) 6:31 PM CDT (8/3)
Length of Visible Light 15h 46m
Length of Day
14h 39m
Waning Crescent, 9% of the Moon is Illuminated
Aug 3
Waning Crescent
Aug 6
New
Aug 14
First Quarter
Aug 20
Full
Aug 28
Last Quarter

Hourly Weather History & Observations

Time (CDT) Temp. Dew Point Humidity Pressure Visibility Wind Dir Wind Speed Gust Speed Precip Events Conditions
12:14 AM 57.2 °F 51.8 °F 82% 30.10 in 10.0 mi NNW 6.9 mph - N/A   Clear
12:33 AM 57.2 °F 51.8 °F 82% 30.10 in 10.0 mi NNW 5.8 mph - N/A   Clear
12:53 AM 57.2 °F 50.0 °F 77% 30.10 in 10.0 mi NNW 4.6 mph - N/A   Clear
1:13 AM 55.4 °F 50.0 °F 82% 30.10 in 10.0 mi North 5.8 mph - N/A   Clear
1:33 AM 57.2 °F 50.0 °F 77% 30.10 in 10.0 mi North 5.8 mph - N/A   Clear
1:53 AM 55.4 °F 50.0 °F 82% 30.11 in 10.0 mi NNW 5.8 mph - N/A   Clear
2:13 AM 55.4 °F 48.2 °F 77% 30.10 in 10.0 mi North 5.8 mph - N/A   Clear
2:33 AM 55.4 °F 48.2 °F 77% 30.11 in 10.0 mi North 4.6 mph - N/A   Clear
2:54 AM 53.6 °F 48.2 °F 82% 30.12 in 10.0 mi NNW 4.6 mph - N/A   Clear
3:13 AM 55.4 °F 50.0 °F 82% 30.12 in 10.0 mi NNW 5.8 mph - N/A   Clear
3:33 AM 55.4 °F 50.0 °F 82% 30.11 in 10.0 mi North 5.8 mph - N/A   Clear
3:53 AM 55.4 °F 51.8 °F 88% 30.12 in 10.0 mi North 5.8 mph - N/A   Clear
4:13 AM 55.4 °F 51.8 °F 88% 30.12 in 10.0 mi North 5.8 mph - N/A   Clear
4:34 AM 55.4 °F 51.8 °F 88% 30.12 in 10.0 mi North 5.8 mph - N/A   Clear
4:53 AM 55.4 °F 50.0 °F 82% 30.13 in 10.0 mi North 6.9 mph - N/A   Clear
5:14 AM 55.4 °F 50.0 °F 82% 30.13 in 10.0 mi North 4.6 mph - N/A   Clear
5:33 AM 55.4 °F 50.0 °F 82% 30.13 in 10.0 mi North 4.6 mph - N/A   Clear
5:53 AM 53.6 °F 50.0 °F 88% 30.13 in 10.0 mi North 4.6 mph - N/A   Clear
6:13 AM 53.6 °F 50.0 °F 88% 30.14 in 10.0 mi NNW 4.6 mph - N/A   Clear
6:33 AM 53.6 °F 50.0 °F 88% 30.14 in 10.0 mi NNW 4.6 mph - N/A   Clear
6:54 AM 55.4 °F 50.0 °F 82% 30.15 in 10.0 mi North 6.9 mph - N/A   Clear
7:13 AM 55.4 °F 51.8 °F 88% 30.15 in 10.0 mi North 5.8 mph - N/A   Scattered Clouds
7:33 AM 59.0 °F 53.6 °F 82% 30.16 in 10.0 mi North 5.8 mph - N/A   Scattered Clouds
7:53 AM 59.0 °F 53.6 °F 82% 30.17 in 10.0 mi North 5.8 mph - N/A   Scattered Clouds
8:13 AM 60.8 °F 53.6 °F 77% 30.18 in 10.0 mi NNW 3.5 mph - N/A   Clear
8:33 AM 62.6 °F 53.6 °F 72% 30.19 in 10.0 mi Calm Calm - N/A   Clear
8:53 AM 64.4 °F 55.4 °F 73% 30.19 in 10.0 mi Calm Calm - N/A   Clear
9:14 AM 64.4 °F 55.4 °F 73% 30.19 in 10.0 mi NNW 4.6 mph - N/A   Clear
9:33 AM 66.2 °F 55.4 °F 68% 30.19 in 10.0 mi WNW 3.5 mph - N/A   Clear
9:53 AM 66.2 °F 57.2 °F 73% 30.19 in 10.0 mi North 5.8 mph - N/A   Clear
10:13 AM 66.2 °F 57.2 °F 73% 30.21 in 10.0 mi North 6.9 mph - N/A   Clear
10:33 AM 68.0 °F 53.6 °F 60% 30.20 in 10.0 mi NNW 6.9 mph - N/A   Clear
10:54 AM 71.6 °F 53.6 °F 53% 30.20 in 10.0 mi NW 8.1 mph - N/A   Clear
11:13 AM 71.6 °F 51.8 °F 50% 30.20 in 10.0 mi NNW 8.1 mph - N/A   Clear
11:33 AM 71.6 °F 51.8 °F 50% 30.20 in 10.0 mi North 10.4 mph - N/A   Clear
11:53 AM 73.4 °F 48.2 °F 41% 30.20 in 10.0 mi North 13.8 mph - N/A   Scattered Clouds
12:13 PM 73.4 °F 48.2 °F 41% 30.20 in 10.0 mi North 10.4 mph - N/A   Scattered Clouds
12:34 PM 73.4 °F 46.4 °F 38% 30.20 in 10.0 mi North 11.5 mph 17.3 mph N/A   Scattered Clouds
12:53 PM 75.2 °F 48.2 °F 38% 30.21 in 10.0 mi NNW 9.2 mph 16.1 mph N/A   Clear
1:13 PM 73.4 °F 48.2 °F 41% 30.21 in 10.0 mi NW 9.2 mph - N/A   Scattered Clouds
1:33 PM 73.4 °F 48.2 °F 41% 30.21 in 10.0 mi NW 10.4 mph 16.1 mph N/A   Mostly Cloudy
1:53 PM 73.4 °F 46.4 °F 38% 30.21 in 10.0 mi NNW 10.4 mph - N/A   Scattered Clouds
2:13 PM 75.2 °F 46.4 °F 36% 30.21 in 10.0 mi North 9.2 mph - N/A   Scattered Clouds
2:33 PM 75.2 °F 46.4 °F 36% 30.21 in 10.0 mi NNW 9.2 mph - N/A   Scattered Clouds
2:53 PM 73.4 °F 44.6 °F 36% 30.21 in 10.0 mi NNW 11.5 mph - N/A   Scattered Clouds
3:13 PM 75.2 °F 46.4 °F 36% 30.20 in 10.0 mi NW 12.7 mph 17.3 mph N/A   Scattered Clouds
3:33 PM 75.2 °F 44.6 °F 34% 30.20 in 10.0 mi NNW 10.4 mph - N/A   Scattered Clouds
3:53 PM 75.2 °F 44.6 °F 34% 30.20 in 10.0 mi North 8.1 mph 16.1 mph N/A   Scattered Clouds
4:13 PM 75.2 °F 44.6 °F 34% 30.20 in 10.0 mi North 10.4 mph 16.1 mph N/A   Clear
4:33 PM 75.2 °F 42.8 °F 31% 30.20 in 10.0 mi NNW 9.2 mph - N/A   Clear
4:53 PM 75.2 °F 41.0 °F 29% 30.20 in 10.0 mi NW 12.7 mph - N/A   Clear
5:13 PM 75.2 °F 42.8 °F 31% 30.20 in 10.0 mi NNW 11.5 mph 18.4 mph N/A   Clear
5:33 PM 75.2 °F 42.8 °F 31% 30.20 in 10.0 mi North 9.2 mph 18.4 mph N/A   Clear
5:54 PM 75.2 °F 42.8 °F 31% 30.20 in 10.0 mi NNW 10.4 mph - N/A   Clear
6:13 PM 73.4 °F 42.8 °F 33% 30.20 in 10.0 mi North 6.9 mph - N/A   Clear
6:33 PM 73.4 °F 42.8 °F 33% 30.19 in 10.0 mi NNW 9.2 mph - N/A   Clear
6:53 PM 73.4 °F 44.6 °F 36% 30.19 in 10.0 mi North 5.8 mph - N/A   Clear
7:13 PM 71.6 °F 46.4 °F 41% 30.19 in 10.0 mi North 9.2 mph - N/A   Clear
7:34 PM 71.6 °F 46.4 °F 41% 30.20 in 10.0 mi NNW 8.1 mph - N/A   Clear
7:53 PM 69.8 °F 46.4 °F 43% 30.20 in 10.0 mi North 6.9 mph - N/A   Clear
8:13 PM 66.2 °F 48.2 °F 52% 30.20 in 10.0 mi North 5.8 mph - N/A   Clear
8:33 PM 64.4 °F 48.2 °F 56% 30.20 in 10.0 mi North 4.6 mph - N/A   Clear
8:53 PM 62.6 °F 50.0 °F 63% 30.21 in 10.0 mi North 5.8 mph - N/A   Clear
9:14 PM 60.8 °F 50.0 °F 68% 30.21 in 10.0 mi North 4.6 mph - N/A   Clear
9:33 PM 60.8 °F 50.0 °F 68% 30.22 in 10.0 mi NNW 4.6 mph - N/A   Clear
9:53 PM 59.0 °F 50.0 °F 72% 30.23 in 10.0 mi NNW 4.6 mph - N/A   Clear
10:13 PM 59.0 °F 48.2 °F 67% 30.23 in 10.0 mi North 5.8 mph - N/A   Clear
10:33 PM 59.0 °F 48.2 °F 67% 30.23 in 10.0 mi North 4.6 mph - N/A   Clear
10:54 PM 59.0 °F 48.2 °F 67% 30.23 in 10.0 mi North 5.8 mph - N/A   Clear
11:13 PM 57.2 °F 48.2 °F 72% 30.25 in 10.0 mi North 4.6 mph - N/A   Clear
11:33 PM 57.2 °F 48.2 °F 72% 30.25 in 10.0 mi North 5.8 mph - N/A   Clear
11:53 PM 57.2 °F 48.2 °F 72% 30.25 in 10.0 mi NNE 4.6 mph - N/A   Clear